sensor_id;sensor_type;location;lat;lon;timestamp;P1;durP1;ratioP1;P2;durP2;ratioP2
35488;SDS011;21602;55.670;37.578;2023-04-25T00:00:46;16.55;;;4.20;;
35488;SDS011;21602;55.670;37.578;2023-04-25T00:03:12;6.75;;;3.78;;
35488;SDS011;21602;55.670;37.578;2023-04-25T00:05:39;9.18;;;4.20;;
35488;SDS011;21602;55.670;37.578;2023-04-25T00:08:05;15.82;;;4.40;;
35488;SDS011;21602;55.670;37.578;2023-04-25T00:10:31;19.08;;;4.38;;
35488;SDS011;21602;55.670;37.578;2023-04-25T00:12:57;6.88;;;3.90;;
35488;SDS011;21602;55.670;37.578;2023-04-25T00:15:23;7.53;;;3.97;;
35488;SDS011;21602;55.670;37.578;2023-04-25T00:17:49;18.13;;;4.72;;
35488;SDS011;21602;55.670;37.578;2023-04-25T00:20:18;12.80;;;4.18;;
35488;SDS011;21602;55.670;37.578;2023-04-25T00:22:44;13.50;;;4.82;;
35488;SDS011;21602;55.670;37.578;2023-04-25T00:25:10;9.20;;;4.22;;
35488;SDS011;21602;55.670;37.578;2023-04-25T00:27:35;7.20;;;3.67;;
35488;SDS011;21602;55.670;37.578;2023-04-25T00:30:02;23.67;;;4.30;;
35488;SDS011;21602;55.670;37.578;2023-04-25T00:32:31;11.75;;;4.47;;
35488;SDS011;21602;55.670;37.578;2023-04-25T00:34:57;8.38;;;4.10;;
35488;SDS011;21602;55.670;37.578;2023-04-25T00:37:23;11.43;;;4.40;;
35488;SDS011;21602;55.670;37.578;2023-04-25T00:39:50;12.20;;;4.80;;
35488;SDS011;21602;55.670;37.578;2023-04-25T00:42:16;16.17;;;5.40;;
35488;SDS011;21602;55.670;37.578;2023-04-25T00:44:42;13.63;;;5.10;;
35488;SDS011;21602;55.670;37.578;2023-04-25T00:47:10;16.17;;;4.78;;
35488;SDS011;21602;55.670;37.578;2023-04-25T00:49:36;8.52;;;4.63;;
35488;SDS011;21602;55.670;37.578;2023-04-25T00:52:02;15.57;;;5.47;;
35488;SDS011;21602;55.670;37.578;2023-04-25T00:54:28;13.00;;;4.28;;
35488;SDS011;21602;55.670;37.578;2023-04-25T00:56:56;9.20;;;5.35;;
35488;SDS011;21602;55.670;37.578;2023-04-25T00:59:22;11.63;;;4.55;;
35488;SDS011;21602;55.670;37.578;2023-04-25T01:01:49;15.27;;;4.93;;
35488;SDS011;21602;55.670;37.578;2023-04-25T01:04:15;12.20;;;5.15;;
35488;SDS011;21602;55.670;37.578;2023-04-25T01:06:41;12.00;;;4.50;;
35488;SDS011;21602;55.670;37.578;2023-04-25T01:09:07;11.95;;;5.18;;
35488;SDS011;21602;55.670;37.578;2023-04-25T01:11:33;12.23;;;4.35;;
35488;SDS011;21602;55.670;37.578;2023-04-25T01:13:59;11.88;;;4.95;;
35488;SDS011;21602;55.670;37.578;2023-04-25T01:16:27;8.50;;;4.57;;
35488;SDS011;21602;55.670;37.578;2023-04-25T01:18:53;18.08;;;6.55;;
35488;SDS011;21602;55.670;37.578;2023-04-25T01:21:20;12.13;;;5.40;;
35488;SDS011;21602;55.670;37.578;2023-04-25T01:23:47;14.88;;;4.90;;
35488;SDS011;21602;55.670;37.578;2023-04-25T01:26:13;12.40;;;4.97;;
35488;SDS011;21602;55.670;37.578;2023-04-25T01:28:39;25.48;;;7.18;;
35488;SDS011;21602;55.670;37.578;2023-04-25T01:31:11;9.32;;;4.30;;
35488;SDS011;21602;55.670;37.578;2023-04-25T01:33:38;13.35;;;5.22;;
35488;SDS011;21602;55.670;37.578;2023-04-25T01:36:04;9.65;;;4.90;;
35488;SDS011;21602;55.670;37.578;2023-04-25T01:38:30;11.57;;;4.55;;
35488;SDS011;21602;55.670;37.578;2023-04-25T01:40:57;8.40;;;4.68;;
35488;SDS011;21602;55.670;37.578;2023-04-25T01:43:23;8.13;;;5.03;;
35488;SDS011;21602;55.670;37.578;2023-04-25T01:45:50;12.55;;;4.72;;
35488;SDS011;21602;55.670;37.578;2023-04-25T01:48:17;11.48;;;4.72;;
35488;SDS011;21602;55.670;37.578;2023-04-25T01:50:43;15.30;;;4.90;;
35488;SDS011;21602;55.670;37.578;2023-04-25T01:53:10;10.13;;;4.50;;
35488;SDS011;21602;55.670;37.578;2023-04-25T01:55:38;10.38;;;5.43;;
35488;SDS011;21602;55.670;37.578;2023-04-25T01:58:08;7.18;;;4.50;;
35488;SDS011;21602;55.670;37.578;2023-04-25T02:01:04;16.15;;;4.25;;
35488;SDS011;21602;55.670;37.578;2023-04-25T02:03:38;8.23;;;4.72;;
35488;SDS011;21602;55.670;37.578;2023-04-25T02:06:08;14.63;;;4.82;;
35488;SDS011;21602;55.670;37.578;2023-04-25T02:08:37;10.80;;;4.72;;
35488;SDS011;21602;55.670;37.578;2023-04-25T02:11:03;13.20;;;5.22;;
35488;SDS011;21602;55.670;37.578;2023-04-25T02:13:36;12.20;;;5.18;;
35488;SDS011;21602;55.670;37.578;2023-04-25T02:16:12;12.52;;;5.00;;
35488;SDS011;21602;55.670;37.578;2023-04-25T02:18:38;17.73;;;5.65;;
35488;SDS011;21602;55.670;37.578;2023-04-25T02:21:06;8.65;;;4.03;;
35488;SDS011;21602;55.670;37.578;2023-04-25T02:23:32;24.15;;;5.38;;
35488;SDS011;21602;55.670;37.578;2023-04-25T02:25:59;8.80;;;5.18;;
35488;SDS011;21602;55.670;37.578;2023-04-25T02:28:25;15.18;;;8.43;;
35488;SDS011;21602;55.670;37.578;2023-04-25T02:30:51;12.43;;;6.22;;
35488;SDS011;21602;55.670;37.578;2023-04-25T02:33:18;11.70;;;5.75;;
35488;SDS011;21602;55.670;37.578;2023-04-25T02:35:44;8.60;;;4.57;;
35488;SDS011;21602;55.670;37.578;2023-04-25T02:38:09;15.10;;;4.78;;
35488;SDS011;21602;55.670;37.578;2023-04-25T02:40:35;9.98;;;5.35;;
35488;SDS011;21602;55.670;37.578;2023-04-25T02:43:01;19.02;;;4.70;;
35488;SDS011;21602;55.670;37.578;2023-04-25T02:45:27;9.63;;;3.65;;
35488;SDS011;21602;55.670;37.578;2023-04-25T02:47:53;10.82;;;4.45;;
35488;SDS011;21602;55.670;37.578;2023-04-25T02:50:19;11.00;;;4.18;;
35488;SDS011;21602;55.670;37.578;2023-04-25T02:52:45;11.07;;;3.83;;
35488;SDS011;21602;55.670;37.578;2023-04-25T02:55:15;5.88;;;3.60;;
35488;SDS011;21602;55.670;37.578;2023-04-25T02:57:42;8.35;;;4.88;;
35488;SDS011;21602;55.670;37.578;2023-04-25T03:00:11;9.32;;;4.38;;
35488;SDS011;21602;55.670;37.578;2023-04-25T03:05:05;8.52;;;5.20;;
35488;SDS011;21602;55.670;37.578;2023-04-25T03:07:33;5.63;;;4.15;;
35488;SDS011;21602;55.670;37.578;2023-04-25T03:10:00;10.38;;;4.07;;
35488;SDS011;21602;55.670;37.578;2023-04-25T03:12:29;14.68;;;7.57;;
35488;SDS011;21602;55.670;37.578;2023-04-25T03:14:55;8.10;;;4.75;;
35488;SDS011;21602;55.670;37.578;2023-04-25T03:17:21;10.65;;;4.60;;
35488;SDS011;21602;55.670;37.578;2023-04-25T03:19:49;13.07;;;5.28;;
35488;SDS011;21602;55.670;37.578;2023-04-25T03:22:15;7.47;;;5.57;;
35488;SDS011;21602;55.670;37.578;2023-04-25T03:24:41;13.05;;;5.63;;
35488;SDS011;21602;55.670;37.578;2023-04-25T03:27:07;13.07;;;5.32;;
35488;SDS011;21602;55.670;37.578;2023-04-25T03:29:34;11.65;;;5.25;;
35488;SDS011;21602;55.670;37.578;2023-04-25T03:32:02;12.32;;;5.82;;
35488;SDS011;21602;55.670;37.578;2023-04-25T03:34:28;12.23;;;5.43;;
35488;SDS011;21602;55.670;37.578;2023-04-25T03:36:54;16.35;;;6.60;;
35488;SDS011;21602;55.670;37.578;2023-04-25T03:39:20;19.05;;;6.75;;
35488;SDS011;21602;55.670;37.578;2023-04-25T03:41:49;14.45;;;5.97;;
35488;SDS011;21602;55.670;37.578;2023-04-25T03:44:17;12.53;;;6.63;;
35488;SDS011;21602;55.670;37.578;2023-04-25T03:46:44;14.80;;;7.40;;
35488;SDS011;21602;55.670;37.578;2023-04-25T03:49:10;13.32;;;6.95;;
35488;SDS011;21602;55.670;37.578;2023-04-25T03:51:54;10.90;;;6.18;;
35488;SDS011;21602;55.670;37.578;2023-04-25T03:54:21;13.68;;;6.75;;
35488;SDS011;21602;55.670;37.578;2023-04-25T03:56:57;18.13;;;7.43;;
35488;SDS011;21602;55.670;37.578;2023-04-25T03:59:26;17.38;;;7.28;;
35488;SDS011;21602;55.670;37.578;2023-04-25T04:01:52;12.77;;;7.95;;
35488;SDS011;21602;55.670;37.578;2023-04-25T04:04:18;22.23;;;7.20;;
35488;SDS011;21602;55.670;37.578;2023-04-25T04:06:44;13.27;;;7.57;;
35488;SDS011;21602;55.670;37.578;2023-04-25T04:09:18;15.25;;;7.10;;
35488;SDS011;21602;55.670;37.578;2023-04-25T04:11:46;14.25;;;6.85;;
35488;SDS011;21602;55.670;37.578;2023-04-25T04:14:12;14.88;;;7.78;;
35488;SDS011;21602;55.670;37.578;2023-04-25T04:16:43;20.13;;;8.95;;
35488;SDS011;21602;55.670;37.578;2023-04-25T04:19:11;15.02;;;7.53;;
35488;SDS011;21602;55.670;37.578;2023-04-25T04:21:39;16.90;;;7.88;;
35488;SDS011;21602;55.670;37.578;2023-04-25T04:24:06;16.88;;;7.45;;
35488;SDS011;21602;55.670;37.578;2023-04-25T04:26:44;17.65;;;7.60;;
35488;SDS011;21602;55.670;37.578;2023-04-25T04:29:27;19.55;;;8.20;;
35488;SDS011;21602;55.670;37.578;2023-04-25T04:32:05;16.67;;;8.48;;
35488;SDS011;21602;55.670;37.578;2023-04-25T04:34:32;16.27;;;8.20;;
35488;SDS011;21602;55.670;37.578;2023-04-25T04:36:59;18.90;;;10.13;;
35488;SDS011;21602;55.670;37.578;2023-04-25T04:39:25;24.65;;;8.40;;
35488;SDS011;21602;55.670;37.578;2023-04-25T04:42:04;22.70;;;11.10;;
35488;SDS011;21602;55.670;37.578;2023-04-25T04:44:44;17.08;;;8.10;;
35488;SDS011;21602;55.670;37.578;2023-04-25T04:47:33;21.38;;;10.48;;
35488;SDS011;21602;55.670;37.578;2023-04-25T04:50:12;15.50;;;7.45;;
35488;SDS011;21602;55.670;37.578;2023-04-25T04:52:58;18.80;;;7.90;;
35488;SDS011;21602;55.670;37.578;2023-04-25T04:55:47;23.13;;;9.85;;
35488;SDS011;21602;55.670;37.578;2023-04-25T04:58:46;17.70;;;7.68;;
35488;SDS011;21602;55.670;37.578;2023-04-25T05:01:33;17.58;;;6.88;;
35488;SDS011;21602;55.670;37.578;2023-04-25T05:04:24;20.88;;;11.10;;
35488;SDS011;21602;55.670;37.578;2023-04-25T05:06:58;19.63;;;9.27;;
35488;SDS011;21602;55.670;37.578;2023-04-25T05:09:31;17.80;;;9.15;;
35488;SDS011;21602;55.670;37.578;2023-04-25T05:12:19;14.02;;;6.55;;
35488;SDS011;21602;55.670;37.578;2023-04-25T05:14:48;28.50;;;12.07;;
35488;SDS011;21602;55.670;37.578;2023-04-25T05:17:33;22.33;;;8.55;;
35488;SDS011;21602;55.670;37.578;2023-04-25T05:19:59;13.70;;;7.03;;
35488;SDS011;21602;55.670;37.578;2023-04-25T05:22:38;25.77;;;9.05;;
35488;SDS011;21602;55.670;37.578;2023-04-25T05:25:20;19.80;;;7.82;;
35488;SDS011;21602;55.670;37.578;2023-04-25T05:28:12;17.35;;;8.00;;
35488;SDS011;21602;55.670;37.578;2023-04-25T05:30:58;15.18;;;6.75;;
35488;SDS011;21602;55.670;37.578;2023-04-25T05:33:31;17.02;;;6.53;;
35488;SDS011;21602;55.670;37.578;2023-04-25T05:35:56;15.13;;;5.57;;
35488;SDS011;21602;55.670;37.578;2023-04-25T05:38:24;13.60;;;6.40;;
35488;SDS011;21602;55.670;37.578;2023-04-25T05:41:22;16.05;;;6.35;;
35488;SDS011;21602;55.670;37.578;2023-04-25T05:43:58;22.67;;;6.93;;
35488;SDS011;21602;55.670;37.578;2023-04-25T05:46:47;11.68;;;5.70;;
35488;SDS011;21602;55.670;37.578;2023-04-25T05:49:20;16.05;;;6.30;;
35488;SDS011;21602;55.670;37.578;2023-04-25T05:52:12;15.43;;;6.78;;
35488;SDS011;21602;55.670;37.578;2023-04-25T05:54:46;19.50;;;7.53;;
35488;SDS011;21602;55.670;37.578;2023-04-25T05:57:19;11.13;;;6.05;;
35488;SDS011;21602;55.670;37.578;2023-04-25T05:59:46;16.80;;;5.75;;
35488;SDS011;21602;55.670;37.578;2023-04-25T06:02:13;19.75;;;5.90;;
35488;SDS011;21602;55.670;37.578;2023-04-25T06:04:40;17.05;;;7.13;;
35488;SDS011;21602;55.670;37.578;2023-04-25T06:07:05;16.55;;;5.65;;
35488;SDS011;21602;55.670;37.578;2023-04-25T06:09:31;14.52;;;6.15;;
35488;SDS011;21602;55.670;37.578;2023-04-25T06:11:57;19.02;;;6.57;;
35488;SDS011;21602;55.670;37.578;2023-04-25T06:14:23;17.02;;;6.25;;
35488;SDS011;21602;55.670;37.578;2023-04-25T06:16:52;16.70;;;4.72;;
35488;SDS011;21602;55.670;37.578;2023-04-25T06:19:18;9.57;;;5.20;;
35488;SDS011;21602;55.670;37.578;2023-04-25T06:21:44;14.80;;;4.80;;
35488;SDS011;21602;55.670;37.578;2023-04-25T06:24:10;17.33;;;5.03;;
35488;SDS011;21602;55.670;37.578;2023-04-25T06:26:38;18.00;;;6.53;;
35488;SDS011;21602;55.670;37.578;2023-04-25T06:29:04;13.38;;;6.32;;
35488;SDS011;21602;55.670;37.578;2023-04-25T06:31:30;19.88;;;5.82;;
35488;SDS011;21602;55.670;37.578;2023-04-25T06:33:59;15.25;;;4.80;;
35488;SDS011;21602;55.670;37.578;2023-04-25T06:36:29;16.08;;;4.63;;
35488;SDS011;21602;55.670;37.578;2023-04-25T06:39:02;18.15;;;4.45;;
35488;SDS011;21602;55.670;37.578;2023-04-25T06:41:28;17.65;;;7.20;;
35488;SDS011;21602;55.670;37.578;2023-04-25T06:43:58;16.95;;;6.45;;
35488;SDS011;21602;55.670;37.578;2023-04-25T06:46:29;16.48;;;4.50;;
35488;SDS011;21602;55.670;37.578;2023-04-25T06:51:24;9.38;;;4.35;;
35488;SDS011;21602;55.670;37.578;2023-04-25T06:53:54;11.60;;;5.05;;
35488;SDS011;21602;55.670;37.578;2023-04-25T06:56:35;11.18;;;3.92;;
35488;SDS011;21602;55.670;37.578;2023-04-25T06:59:06;14.18;;;5.07;;
35488;SDS011;21602;55.670;37.578;2023-04-25T07:01:35;12.88;;;4.95;;
35488;SDS011;21602;55.670;37.578;2023-04-25T07:04:04;12.00;;;4.45;;
35488;SDS011;21602;55.670;37.578;2023-04-25T07:06:32;15.10;;;4.45;;
35488;SDS011;21602;55.670;37.578;2023-04-25T07:08:59;13.73;;;5.43;;
35488;SDS011;21602;55.670;37.578;2023-04-25T07:11:27;12.80;;;5.25;;
35488;SDS011;21602;55.670;37.578;2023-04-25T07:13:53;11.18;;;4.97;;
35488;SDS011;21602;55.670;37.578;2023-04-25T07:16:19;8.70;;;4.93;;
35488;SDS011;21602;55.670;37.578;2023-04-25T07:18:46;22.00;;;5.13;;
35488;SDS011;21602;55.670;37.578;2023-04-25T07:21:12;14.07;;;5.18;;
35488;SDS011;21602;55.670;37.578;2023-04-25T07:23:41;14.00;;;7.13;;
35488;SDS011;21602;55.670;37.578;2023-04-25T07:26:11;8.82;;;4.88;;
35488;SDS011;21602;55.670;37.578;2023-04-25T07:28:47;9.45;;;5.30;;
35488;SDS011;21602;55.670;37.578;2023-04-25T07:31:16;18.63;;;5.88;;
35488;SDS011;21602;55.670;37.578;2023-04-25T07:33:44;18.73;;;6.30;;
35488;SDS011;21602;55.670;37.578;2023-04-25T07:36:13;20.30;;;5.55;;
35488;SDS011;21602;55.670;37.578;2023-04-25T07:38:41;11.25;;;5.00;;
35488;SDS011;21602;55.670;37.578;2023-04-25T07:41:06;12.95;;;3.60;;
35488;SDS011;21602;55.670;37.578;2023-04-25T07:43:33;12.95;;;4.38;;
35488;SDS011;21602;55.670;37.578;2023-04-25T07:45:58;6.60;;;3.28;;
35488;SDS011;21602;55.670;37.578;2023-04-25T07:50:52;13.82;;;4.22;;
35488;SDS011;21602;55.670;37.578;2023-04-25T07:53:19;7.03;;;3.08;;
35488;SDS011;21602;55.670;37.578;2023-04-25T07:55:51;8.27;;;5.65;;
35488;SDS011;21602;55.670;37.578;2023-04-25T07:58:17;9.55;;;3.53;;
35488;SDS011;21602;55.670;37.578;2023-04-25T08:00:49;8.07;;;3.20;;
35488;SDS011;21602;55.670;37.578;2023-04-25T08:03:35;7.10;;;2.92;;
35488;SDS011;21602;55.670;37.578;2023-04-25T08:06:03;8.35;;;2.92;;
35488;SDS011;21602;55.670;37.578;2023-04-25T08:08:32;15.70;;;3.67;;
35488;SDS011;21602;55.670;37.578;2023-04-25T08:10:58;15.90;;;3.80;;
35488;SDS011;21602;55.670;37.578;2023-04-25T08:13:26;8.55;;;2.60;;
35488;SDS011;21602;55.670;37.578;2023-04-25T08:15:53;6.20;;;2.75;;
35488;SDS011;21602;55.670;37.578;2023-04-25T08:18:18;12.05;;;3.15;;
35488;SDS011;21602;55.670;37.578;2023-04-25T08:20:46;10.40;;;3.30;;
35488;SDS011;21602;55.670;37.578;2023-04-25T08:23:14;9.32;;;2.80;;
35488;SDS011;21602;55.670;37.578;2023-04-25T08:26:00;7.68;;;2.63;;
35488;SDS011;21602;55.670;37.578;2023-04-25T08:28:27;10.48;;;2.95;;
35488;SDS011;21602;55.670;37.578;2023-04-25T08:30:56;6.28;;;3.03;;
35488;SDS011;21602;55.670;37.578;2023-04-25T08:33:22;11.23;;;3.10;;
35488;SDS011;21602;55.670;37.578;2023-04-25T08:36:02;5.72;;;3.08;;
35488;SDS011;21602;55.670;37.578;2023-04-25T08:38:32;4.85;;;2.67;;
35488;SDS011;21602;55.670;37.578;2023-04-25T08:40:59;8.48;;;2.83;;
35488;SDS011;21602;55.670;37.578;2023-04-25T08:43:29;7.70;;;2.80;;
35488;SDS011;21602;55.670;37.578;2023-04-25T08:45:59;12.00;;;3.20;;
35488;SDS011;21602;55.670;37.578;2023-04-25T08:48:39;9.65;;;3.20;;
35488;SDS011;21602;55.670;37.578;2023-04-25T08:53:35;16.25;;;3.10;;
35488;SDS011;21602;55.670;37.578;2023-04-25T08:58:34;12.00;;;3.50;;
35488;SDS011;21602;55.670;37.578;2023-04-25T09:01:02;6.03;;;3.17;;
35488;SDS011;21602;55.670;37.578;2023-04-25T09:03:35;15.50;;;4.43;;
35488;SDS011;21602;55.670;37.578;2023-04-25T09:06:01;13.80;;;3.58;;
35488;SDS011;21602;55.670;37.578;2023-04-25T09:08:27;8.07;;;3.03;;
35488;SDS011;21602;55.670;37.578;2023-04-25T09:10:53;7.90;;;2.90;;
35488;SDS011;21602;55.670;37.578;2023-04-25T09:13:26;9.75;;;2.75;;
35488;SDS011;21602;55.670;37.578;2023-04-25T09:16:16;5.50;;;2.80;;
35488;SDS011;21602;55.670;37.578;2023-04-25T09:19:22;7.53;;;2.37;;
35488;SDS011;21602;55.670;37.578;2023-04-25T09:21:49;5.55;;;2.42;;
35488;SDS011;21602;55.670;37.578;2023-04-25T09:24:15;12.23;;;2.75;;
35488;SDS011;21602;55.670;37.578;2023-04-25T09:26:41;11.63;;;2.78;;
35488;SDS011;21602;55.670;37.578;2023-04-25T09:29:09;5.90;;;2.40;;
35488;SDS011;21602;55.670;37.578;2023-04-25T09:31:39;4.82;;;2.75;;
35488;SDS011;21602;55.670;37.578;2023-04-25T09:34:07;16.33;;;2.95;;
35488;SDS011;21602;55.670;37.578;2023-04-25T09:36:41;6.88;;;2.92;;
35488;SDS011;21602;55.670;37.578;2023-04-25T09:39:32;10.88;;;3.00;;
35488;SDS011;21602;55.670;37.578;2023-04-25T09:42:07;8.15;;;3.00;;
35488;SDS011;21602;55.670;37.578;2023-04-25T09:44:35;11.80;;;3.00;;
35488;SDS011;21602;55.670;37.578;2023-04-25T09:47:02;16.80;;;3.93;;
35488;SDS011;21602;55.670;37.578;2023-04-25T09:49:29;20.58;;;5.55;;
35488;SDS011;21602;55.670;37.578;2023-04-25T09:52:08;4.75;;;2.40;;
35488;SDS011;21602;55.670;37.578;2023-04-25T09:54:41;9.15;;;5.75;;
35488;SDS011;21602;55.670;37.578;2023-04-25T09:57:15;6.15;;;2.97;;
35488;SDS011;21602;55.670;37.578;2023-04-25T09:59:46;6.68;;;2.80;;
35488;SDS011;21602;55.670;37.578;2023-04-25T10:02:15;9.63;;;4.88;;
35488;SDS011;21602;55.670;37.578;2023-04-25T10:04:47;7.95;;;3.03;;
35488;SDS011;21602;55.670;37.578;2023-04-25T10:07:22;6.38;;;3.22;;
35488;SDS011;21602;55.670;37.578;2023-04-25T10:09:53;16.33;;;5.05;;
35488;SDS011;21602;55.670;37.578;2023-04-25T10:12:25;16.63;;;4.32;;
35488;SDS011;21602;55.670;37.578;2023-04-25T10:14:52;7.75;;;3.00;;
35488;SDS011;21602;55.670;37.578;2023-04-25T10:17:19;3.88;;;2.45;;
35488;SDS011;21602;55.670;37.578;2023-04-25T10:19:46;5.28;;;2.80;;
35488;SDS011;21602;55.670;37.578;2023-04-25T10:24:42;14.30;;;2.78;;
35488;SDS011;21602;55.670;37.578;2023-04-25T10:27:09;5.38;;;2.53;;
35488;SDS011;21602;55.670;37.578;2023-04-25T10:29:36;7.95;;;2.30;;
35488;SDS011;21602;55.670;37.578;2023-04-25T10:32:03;11.80;;;2.80;;
35488;SDS011;21602;55.670;37.578;2023-04-25T10:34:40;6.60;;;2.50;;
35488;SDS011;21602;55.670;37.578;2023-04-25T10:37:10;11.88;;;3.35;;
35488;SDS011;21602;55.670;37.578;2023-04-25T10:39:38;6.35;;;3.45;;
35488;SDS011;21602;55.670;37.578;2023-04-25T10:42:07;3.90;;;2.45;;
35488;SDS011;21602;55.670;37.578;2023-04-25T10:44:33;6.95;;;2.35;;
35488;SDS011;21602;55.670;37.578;2023-04-25T10:47:00;8.60;;;2.67;;
35488;SDS011;21602;55.670;37.578;2023-04-25T10:52:10;6.15;;;2.33;;
35488;SDS011;21602;55.670;37.578;2023-04-25T10:57:25;9.65;;;2.75;;
35488;SDS011;21602;55.670;37.578;2023-04-25T11:00:14;5.93;;;3.50;;
35488;SDS011;21602;55.670;37.578;2023-04-25T11:02:48;9.15;;;1.90;;
35488;SDS011;21602;55.670;37.578;2023-04-25T11:08:00;6.32;;;2.63;;
35488;SDS011;21602;55.670;37.578;2023-04-25T11:12:55;11.77;;;5.65;;
35488;SDS011;21602;55.670;37.578;2023-04-25T11:15:22;7.00;;;4.75;;
35488;SDS011;21602;55.670;37.578;2023-04-25T11:17:48;4.88;;;2.50;;
35488;SDS011;21602;55.670;37.578;2023-04-25T11:20:17;9.38;;;3.03;;
35488;SDS011;21602;55.670;37.578;2023-04-25T11:22:44;11.02;;;6.20;;
35488;SDS011;21602;55.670;37.578;2023-04-25T11:25:11;6.93;;;2.35;;
35488;SDS011;21602;55.670;37.578;2023-04-25T11:27:50;18.65;;;11.15;;
35488;SDS011;21602;55.670;37.578;2023-04-25T11:30:17;9.45;;;5.68;;
35488;SDS011;21602;55.670;37.578;2023-04-25T11:32:44;4.28;;;2.13;;
35488;SDS011;21602;55.670;37.578;2023-04-25T11:35:11;8.85;;;5.10;;
35488;SDS011;21602;55.670;37.578;2023-04-25T11:37:40;8.52;;;3.05;;
35488;SDS011;21602;55.670;37.578;2023-04-25T11:40:07;18.75;;;7.57;;
35488;SDS011;21602;55.670;37.578;2023-04-25T11:42:39;14.65;;;3.15;;
35488;SDS011;21602;55.670;37.578;2023-04-25T11:45:08;10.07;;;7.10;;
35488;SDS011;21602;55.670;37.578;2023-04-25T11:47:35;13.20;;;1.88;;
35488;SDS011;21602;55.670;37.578;2023-04-25T11:50:01;5.13;;;2.63;;
35488;SDS011;21602;55.670;37.578;2023-04-25T11:52:36;6.22;;;3.88;;
35488;SDS011;21602;55.670;37.578;2023-04-25T11:55:09;18.63;;;11.15;;
35488;SDS011;21602;55.670;37.578;2023-04-25T11:57:38;17.30;;;11.02;;
35488;SDS011;21602;55.670;37.578;2023-04-25T12:00:15;5.03;;;2.17;;
35488;SDS011;21602;55.670;37.578;2023-04-25T12:02:47;8.35;;;3.47;;
35488;SDS011;21602;55.670;37.578;2023-04-25T12:05:17;4.82;;;1.80;;
35488;SDS011;21602;55.670;37.578;2023-04-25T12:07:43;3.88;;;2.05;;
35488;SDS011;21602;55.670;37.578;2023-04-25T12:10:10;5.97;;;2.33;;
35488;SDS011;21602;55.670;37.578;2023-04-25T12:12:38;8.63;;;2.38;;
35488;SDS011;21602;55.670;37.578;2023-04-25T12:15:13;7.43;;;4.63;;
35488;SDS011;21602;55.670;37.578;2023-04-25T12:17:42;7.28;;;3.97;;
35488;SDS011;21602;55.670;37.578;2023-04-25T12:20:12;11.70;;;3.97;;
35488;SDS011;21602;55.670;37.578;2023-04-25T12:22:44;5.13;;;2.05;;
35488;SDS011;21602;55.670;37.578;2023-04-25T12:25:12;6.25;;;1.83;;
35488;SDS011;21602;55.670;37.578;2023-04-25T12:33:20;7.63;;;3.13;;
35488;SDS011;21602;55.670;37.578;2023-04-25T12:35:47;5.50;;;2.53;;
35488;SDS011;21602;55.670;37.578;2023-04-25T12:38:26;8.25;;;1.95;;
35488;SDS011;21602;55.670;37.578;2023-04-25T12:40:55;5.00;;;1.77;;
35488;SDS011;21602;55.670;37.578;2023-04-25T12:43:21;7.03;;;2.85;;
35488;SDS011;21602;55.670;37.578;2023-04-25T12:45:51;5.97;;;3.05;;
35488;SDS011;21602;55.670;37.578;2023-04-25T12:48:19;6.70;;;3.10;;
35488;SDS011;21602;55.670;37.578;2023-04-25T12:50:46;4.90;;;2.95;;
35488;SDS011;21602;55.670;37.578;2023-04-25T12:53:16;5.18;;;2.53;;
35488;SDS011;21602;55.670;37.578;2023-04-25T12:55:43;13.80;;;2.63;;
35488;SDS011;21602;55.670;37.578;2023-04-25T13:00:36;8.25;;;2.58;;
35488;SDS011;21602;55.670;37.578;2023-04-25T13:03:03;9.05;;;2.05;;
35488;SDS011;21602;55.670;37.578;2023-04-25T13:05:30;9.82;;;2.25;;
35488;SDS011;21602;55.670;37.578;2023-04-25T13:07:56;4.03;;;1.90;;
35488;SDS011;21602;55.670;37.578;2023-04-25T13:10:22;4.15;;;2.20;;
35488;SDS011;21602;55.670;37.578;2023-04-25T13:12:48;9.93;;;2.05;;
35488;SDS011;21602;55.670;37.578;2023-04-25T13:17:42;5.28;;;2.03;;
35488;SDS011;21602;55.670;37.578;2023-04-25T13:20:08;5.75;;;2.33;;
35488;SDS011;21602;55.670;37.578;2023-04-25T13:22:38;10.32;;;3.13;;
35488;SDS011;21602;55.670;37.578;2023-04-25T13:25:05;5.32;;;2.05;;
35488;SDS011;21602;55.670;37.578;2023-04-25T13:27:33;9.07;;;1.75;;
35488;SDS011;21602;55.670;37.578;2023-04-25T13:30:01;7.25;;;2.08;;
35488;SDS011;21602;55.670;37.578;2023-04-25T13:32:33;3.92;;;2.35;;
35488;SDS011;21602;55.670;37.578;2023-04-25T13:35:02;5.10;;;2.15;;
35488;SDS011;21602;55.670;37.578;2023-04-25T13:37:29;6.78;;;1.80;;
35488;SDS011;21602;55.670;37.578;2023-04-25T13:39:58;4.22;;;2.10;;
35488;SDS011;21602;55.670;37.578;2023-04-25T13:42:26;8.02;;;3.05;;
35488;SDS011;21602;55.670;37.578;2023-04-25T13:44:52;6.15;;;2.50;;
35488;SDS011;21602;55.670;37.578;2023-04-25T13:47:18;2.75;;;2.22;;
35488;SDS011;21602;55.670;37.578;2023-04-25T13:49:43;8.13;;;2.17;;
35488;SDS011;21602;55.670;37.578;2023-04-25T13:52:09;6.63;;;2.10;;
35488;SDS011;21602;55.670;37.578;2023-04-25T13:54:35;11.13;;;2.70;;
35488;SDS011;21602;55.670;37.578;2023-04-25T13:57:01;7.57;;;2.60;;
35488;SDS011;21602;55.670;37.578;2023-04-25T13:59:27;20.13;;;11.35;;
35488;SDS011;21602;55.670;37.578;2023-04-25T14:01:53;7.18;;;3.40;;
35488;SDS011;21602;55.670;37.578;2023-04-25T14:04:19;16.52;;;8.63;;
35488;SDS011;21602;55.670;37.578;2023-04-25T14:06:45;9.50;;;5.55;;
35488;SDS011;21602;55.670;37.578;2023-04-25T14:09:10;11.32;;;6.93;;
35488;SDS011;21602;55.670;37.578;2023-04-25T14:11:38;14.05;;;7.07;;
35488;SDS011;21602;55.670;37.578;2023-04-25T14:14:04;3.28;;;2.20;;
35488;SDS011;21602;55.670;37.578;2023-04-25T14:16:30;6.80;;;2.20;;
35488;SDS011;21602;55.670;37.578;2023-04-25T14:18:59;13.85;;;6.65;;
35488;SDS011;21602;55.670;37.578;2023-04-25T14:21:26;6.97;;;2.33;;
35488;SDS011;21602;55.670;37.578;2023-04-25T14:23:53;12.75;;;2.45;;
35488;SDS011;21602;55.670;37.578;2023-04-25T14:26:19;10.63;;;7.35;;
35488;SDS011;21602;55.670;37.578;2023-04-25T14:28:45;9.30;;;5.13;;
35488;SDS011;21602;55.670;37.578;2023-04-25T14:31:11;4.07;;;2.40;;
35488;SDS011;21602;55.670;37.578;2023-04-25T14:33:37;8.13;;;4.13;;
35488;SDS011;21602;55.670;37.578;2023-04-25T14:36:07;12.98;;;8.10;;
35488;SDS011;21602;55.670;37.578;2023-04-25T14:38:33;4.88;;;2.53;;
35488;SDS011;21602;55.670;37.578;2023-04-25T14:40:59;11.73;;;2.70;;
35488;SDS011;21602;55.670;37.578;2023-04-25T14:43:25;6.38;;;2.10;;
35488;SDS011;21602;55.670;37.578;2023-04-25T14:45:51;6.88;;;2.53;;
35488;SDS011;21602;55.670;37.578;2023-04-25T14:48:17;5.35;;;2.72;;
35488;SDS011;21602;55.670;37.578;2023-04-25T14:50:45;6.87;;;2.77;;
35488;SDS011;21602;55.670;37.578;2023-04-25T14:53:11;5.18;;;2.55;;
35488;SDS011;21602;55.670;37.578;2023-04-25T14:55:38;4.13;;;2.38;;
35488;SDS011;21602;55.670;37.578;2023-04-25T14:58:04;6.38;;;2.28;;
35488;SDS011;21602;55.670;37.578;2023-04-25T15:00:31;9.45;;;3.25;;
35488;SDS011;21602;55.670;37.578;2023-04-25T15:02:58;8.48;;;3.10;;
35488;SDS011;21602;55.670;37.578;2023-04-25T15:05:24;6.05;;;2.58;;
35488;SDS011;21602;55.670;37.578;2023-04-25T15:07:50;8.98;;;3.22;;
35488;SDS011;21602;55.670;37.578;2023-04-25T15:10:17;8.88;;;3.30;;
35488;SDS011;21602;55.670;37.578;2023-04-25T15:12:44;9.30;;;2.78;;
35488;SDS011;21602;55.670;37.578;2023-04-25T15:15:10;7.60;;;2.78;;